Kawkawlin, MI (48631)

11:42 PM EST on December 04, 2016 (GMT -0500)
Euclid and Wilder | | Change Station

Elev 597 ft 43.62 °N, 83.92 °W | Updated 45 seconds ago

Light Snow
Light Snow Mist
31.9 °F
Feels Like 32 °F
N
0.0
Wind Variable Wind from North

Today
High -- | Low -- °F
--% Chance of Precip.
Yesterday
High -- | Low -- °F
Precip. -- in
Pressure 29.82 in
Visibility 1.0 miles
Clouds Mostly Cloudy 400 ft
Overcast 2600 ft
Windchill 32 °F
Dew Point 31 °F
Humidity 98%
Rainfall 0.00 in
Snow Depth Not available.
7:53 AM 4:59 PM
Waxing Crescent, 28% visible
SPECI KMBS 050415Z 00000KT 1SM R23/P6000FT -SN BR BKN004 OVC026 01/00 A2982 RMK AO2 P0001 T00060000
Pressure 29.82 in
Visibility 1.0 miles
Clouds Mostly Cloudy 400 ft
Overcast 2600 ft
Windchill 32 °F
Dew Point 31 °F
Humidity 98%
Rainfall 0.00 in
Snow Depth Not available.
7:53 AM 4:59 PM
Waxing Crescent, 28% visible
SPECI KMBS 050415Z 00000KT 1SM R23/P6000FT -SN BR BKN004 OVC026 01/00 A2982 RMK AO2 P0001 T00060000

10-Day Weather Forecast

Almanac

Astronomy

Dec. 04, 2016 Rise Set
Actual Time
Civil Twilight
Nautical Twilight
Astronomical Twilight
Moon
Length of Visible Light
Length of Day
Tomorrow will be .
, % of the Moon is Illuminated

Today's Extremes

State Highs State Lows

Community

WunderPhotos

Upload Photos

1,955,763 photos uploaded!

WunderBlog® & News

Nearby

Air Quality

  Air Quality AQ Index Pollutant
Not available.

Snow Depth

Station Depth Elevation

Earthquake Activity

City Distance Mag. Time & Date
Minimum magnitude displayed is 2.5.

Coastal Water Temperatures

Place Temperature

Stations

Nearby Weather Stations

Station Location Temp. Windchill Dew Point Humidity Wind Precip. Elev Updated Type
                   

Watches & Warnings

There are currently no watches in effect.